sensor_id;sensor_type;location;lat;lon;timestamp;temperature;humidity
2453;DHT22;1238;47.994;7.854;2022-08-01T00:00:45;23.80;88.10
2453;DHT22;1238;47.994;7.854;2022-08-01T00:03:18;21.80;87.20
2453;DHT22;1238;47.994;7.854;2022-08-01T00:05:50;22.10;88.10
2453;DHT22;1238;47.994;7.854;2022-08-01T00:08:22;23.70;89.70
2453;DHT22;1238;47.994;7.854;2022-08-01T00:10:54;23.60;90.30
2453;DHT22;1238;47.994;7.854;2022-08-01T00:13:26;21.20;90.20
2453;DHT22;1238;47.994;7.854;2022-08-01T00:15:59;21.00;90.20
2453;DHT22;1238;47.994;7.854;2022-08-01T00:18:31;21.10;90.50
2453;DHT22;1238;47.994;7.854;2022-08-01T00:21:04;21.20;90.50
2453;DHT22;1238;47.994;7.854;2022-08-01T00:23:36;22.10;90.50
2453;DHT22;1238;47.994;7.854;2022-08-01T00:26:08;21.20;90.20
2453;DHT22;1238;47.994;7.854;2022-08-01T00:28:41;21.30;90.20
2453;DHT22;1238;47.994;7.854;2022-08-01T00:31:13;22.40;90.50
2453;DHT22;1238;47.994;7.854;2022-08-01T00:33:45;21.30;90.20
2453;DHT22;1238;47.994;7.854;2022-08-01T00:36:18;22.30;90.60
2453;DHT22;1238;47.994;7.854;2022-08-01T00:38:50;21.30;90.50
2453;DHT22;1238;47.994;7.854;2022-08-01T00:41:22;21.20;90.60
2453;DHT22;1238;47.994;7.854;2022-08-01T00:43:54;21.20;90.80
2453;DHT22;1238;47.994;7.854;2022-08-01T00:46:26;21.20;90.80
2453;DHT22;1238;47.994;7.854;2022-08-01T00:49:02;21.60;90.90
2453;DHT22;1238;47.994;7.854;2022-08-01T00:51:34;21.20;90.90
2453;DHT22;1238;47.994;7.854;2022-08-01T00:54:07;21.30;91.00
2453;DHT22;1238;47.994;7.854;2022-08-01T00:56:43;23.60;91.50
2453;DHT22;1238;47.994;7.854;2022-08-01T00:59:17;21.30;91.10
2453;DHT22;1238;47.994;7.854;2022-08-01T01:01:51;24.20;91.70
2453;DHT22;1238;47.994;7.854;2022-08-01T01:04:24;22.70;91.50
2453;DHT22;1238;47.994;7.854;2022-08-01T01:07:06;22.30;91.50
2453;DHT22;1238;47.994;7.854;2022-08-01T01:15:34;21.00;91.90
2453;DHT22;1238;47.994;7.854;2022-08-01T01:18:17;20.80;92.50
2453;DHT22;1238;47.994;7.854;2022-08-01T01:21:00;20.60;93.10
2453;DHT22;1238;47.994;7.854;2022-08-01T01:24:00;20.40;93.30
2453;DHT22;1238;47.994;7.854;2022-08-01T01:26:45;20.30;93.90
2453;DHT22;1238;47.994;7.854;2022-08-01T01:29:31;20.30;94.00
2453;DHT22;1238;47.994;7.854;2022-08-01T01:32:38;22.20;94.80
2453;DHT22;1238;47.994;7.854;2022-08-01T01:35:20;20.30;94.40
2453;DHT22;1238;47.994;7.854;2022-08-01T01:38:00;20.30;94.70
2453;DHT22;1238;47.994;7.854;2022-08-01T01:40:34;22.90;95.20
2453;DHT22;1238;47.994;7.854;2022-08-01T01:43:28;20.40;94.70
2453;DHT22;1238;47.994;7.854;2022-08-01T01:46:06;20.50;94.40
2453;DHT22;1238;47.994;7.854;2022-08-01T01:48:40;20.70;94.50
2453;DHT22;1238;47.994;7.854;2022-08-01T01:51:15;21.10;94.60
2453;DHT22;1238;47.994;7.854;2022-08-01T01:53:49;23.00;95.10
2453;DHT22;1238;47.994;7.854;2022-08-01T01:56:24;20.60;94.60
2453;DHT22;1238;47.994;7.854;2022-08-01T01:59:02;20.50;94.70
2453;DHT22;1238;47.994;7.854;2022-08-01T02:01:36;20.40;95.10
2453;DHT22;1238;47.994;7.854;2022-08-01T02:04:28;20.30;95.60
2453;DHT22;1238;47.994;7.854;2022-08-01T02:07:03;20.10;96.00
2453;DHT22;1238;47.994;7.854;2022-08-01T02:09:37;19.90;96.50
2453;DHT22;1238;47.994;7.854;2022-08-01T02:12:13;19.80;97.20
2453;DHT22;1238;47.994;7.854;2022-08-01T02:14:48;19.60;97.70
2453;DHT22;1238;47.994;7.854;2022-08-01T02:17:23;19.50;98.20
2453;DHT22;1238;47.994;7.854;2022-08-01T02:19:57;21.80;99.10
2453;DHT22;1238;47.994;7.854;2022-08-01T02:22:33;19.40;98.70
2453;DHT22;1238;47.994;7.854;2022-08-01T02:25:15;20.30;99.40
2453;DHT22;1238;47.994;7.854;2022-08-01T02:30:24;20.30;99.90
2453;DHT22;1238;47.994;7.854;2022-08-01T02:33:02;19.30;99.90
2453;DHT22;1238;47.994;7.854;2022-08-01T02:35:38;20.70;99.90
2453;DHT22;1238;47.994;7.854;2022-08-01T02:38:35;19.00;99.90
2453;DHT22;1238;47.994;7.854;2022-08-01T02:41:10;19.00;99.90
2453;DHT22;1238;47.994;7.854;2022-08-01T02:43:48;18.90;99.90
2453;DHT22;1238;47.994;7.854;2022-08-01T02:46:30;18.90;99.90
2453;DHT22;1238;47.994;7.854;2022-08-01T02:49:05;18.90;99.90
2453;DHT22;1238;47.994;7.854;2022-08-01T02:51:39;19.00;99.90
2453;DHT22;1238;47.994;7.854;2022-08-01T02:54:15;19.00;99.90
2453;DHT22;1238;47.994;7.854;2022-08-01T02:56:50;19.10;99.90
2453;DHT22;1238;47.994;7.854;2022-08-01T02:59:24;19.10;99.90
2453;DHT22;1238;47.994;7.854;2022-08-01T03:01:59;19.00;99.90
2453;DHT22;1238;47.994;7.854;2022-08-01T03:04:35;20.10;99.90
2453;DHT22;1238;47.994;7.854;2022-08-01T03:07:09;19.80;99.90
2453;DHT22;1238;47.994;7.854;2022-08-01T03:09:45;19.10;99.90
2453;DHT22;1238;47.994;7.854;2022-08-01T03:12:20;19.00;99.90
2453;DHT22;1238;47.994;7.854;2022-08-01T03:14:54;20.50;99.90
2453;DHT22;1238;47.994;7.854;2022-08-01T03:17:29;20.60;99.90
2453;DHT22;1238;47.994;7.854;2022-08-01T03:20:02;18.90;99.90
2453;DHT22;1238;47.994;7.854;2022-08-01T03:22:36;18.90;99.90
2453;DHT22;1238;47.994;7.854;2022-08-01T03:25:11;19.00;99.90
2453;DHT22;1238;47.994;7.854;2022-08-01T03:27:54;19.00;99.90
2453;DHT22;1238;47.994;7.854;2022-08-01T03:30:27;18.90;99.90
2453;DHT22;1238;47.994;7.854;2022-08-01T03:33:00;18.80;99.90
2453;DHT22;1238;47.994;7.854;2022-08-01T03:35:52;18.70;99.90
2453;DHT22;1238;47.994;7.854;2022-08-01T03:38:27;20.80;99.90
2453;DHT22;1238;47.994;7.854;2022-08-01T03:41:09;21.80;99.90
2453;DHT22;1238;47.994;7.854;2022-08-01T03:44:16;18.80;99.90
2453;DHT22;1238;47.994;7.854;2022-08-01T03:47:09;18.80;99.90
2453;DHT22;1238;47.994;7.854;2022-08-01T03:49:44;18.70;99.90
2453;DHT22;1238;47.994;7.854;2022-08-01T03:52:17;20.40;99.90
2453;DHT22;1238;47.994;7.854;2022-08-01T03:54:51;18.70;99.90
2453;DHT22;1238;47.994;7.854;2022-08-01T03:57:28;18.70;99.90
2453;DHT22;1238;47.994;7.854;2022-08-01T04:00:09;18.60;99.90
2453;DHT22;1238;47.994;7.854;2022-08-01T04:02:48;18.70;99.90
2453;DHT22;1238;47.994;7.854;2022-08-01T04:05:21;18.70;99.90
2453;DHT22;1238;47.994;7.854;2022-08-01T04:07:53;18.60;99.90
2453;DHT22;1238;47.994;7.854;2022-08-01T04:10:29;18.50;99.90
2453;DHT22;1238;47.994;7.854;2022-08-01T04:13:01;18.50;99.90
2453;DHT22;1238;47.994;7.854;2022-08-01T04:15:34;18.40;99.90
2453;DHT22;1238;47.994;7.854;2022-08-01T04:18:07;18.40;99.90
2453;DHT22;1238;47.994;7.854;2022-08-01T04:20:39;18.40;99.90
2453;DHT22;1238;47.994;7.854;2022-08-01T04:23:12;18.60;99.90
2453;DHT22;1238;47.994;7.854;2022-08-01T04:25:46;18.50;99.90
2453;DHT22;1238;47.994;7.854;2022-08-01T04:28:21;18.50;99.90
2453;DHT22;1238;47.994;7.854;2022-08-01T04:30:55;20.60;99.90
2453;DHT22;1238;47.994;7.854;2022-08-01T04:33:33;18.20;99.90
2453;DHT22;1238;47.994;7.854;2022-08-01T04:36:10;18.30;99.90
2453;DHT22;1238;47.994;7.854;2022-08-01T04:38:46;18.40;99.90
2453;DHT22;1238;47.994;7.854;2022-08-01T04:41:20;19.20;99.90
2453;DHT22;1238;47.994;7.854;2022-08-01T04:43:53;18.60;99.90
2453;DHT22;1238;47.994;7.854;2022-08-01T04:46:27;21.70;99.90
2453;DHT22;1238;47.994;7.854;2022-08-01T04:49:01;18.60;99.90
2453;DHT22;1238;47.994;7.854;2022-08-01T04:51:34;19.90;99.90
2453;DHT22;1238;47.994;7.854;2022-08-01T04:54:06;18.70;99.90
2453;DHT22;1238;47.994;7.854;2022-08-01T04:59:13;18.80;99.90
2453;DHT22;1238;47.994;7.854;2022-08-01T05:02:04;19.30;99.90
2453;DHT22;1238;47.994;7.854;2022-08-01T05:04:39;20.50;99.90
2453;DHT22;1238;47.994;7.854;2022-08-01T05:07:12;20.30;99.90
2453;DHT22;1238;47.994;7.854;2022-08-01T05:09:44;21.00;99.90
2453;DHT22;1238;47.994;7.854;2022-08-01T05:12:18;18.90;99.90
2453;DHT22;1238;47.994;7.854;2022-08-01T05:14:50;19.00;99.90
2453;DHT22;1238;47.994;7.854;2022-08-01T05:17:22;19.70;99.90
2453;DHT22;1238;47.994;7.854;2022-08-01T05:19:55;19.00;99.90
2453;DHT22;1238;47.994;7.854;2022-08-01T05:22:27;18.90;99.90
2453;DHT22;1238;47.994;7.854;2022-08-01T05:24:59;20.30;99.90
2453;DHT22;1238;47.994;7.854;2022-08-01T05:27:32;19.00;99.90
2453;DHT22;1238;47.994;7.854;2022-08-01T05:30:10;22.40;99.90
2453;DHT22;1238;47.994;7.854;2022-08-01T05:32:42;19.00;99.90
2453;DHT22;1238;47.994;7.854;2022-08-01T05:35:14;19.10;99.90
2453;DHT22;1238;47.994;7.854;2022-08-01T05:37:46;19.00;99.90
2453;DHT22;1238;47.994;7.854;2022-08-01T05:40:19;20.00;99.90
2453;DHT22;1238;47.994;7.854;2022-08-01T05:42:51;19.40;99.90
2453;DHT22;1238;47.994;7.854;2022-08-01T05:45:26;19.90;99.90
2453;DHT22;1238;47.994;7.854;2022-08-01T05:47:58;19.90;99.90
2453;DHT22;1238;47.994;7.854;2022-08-01T05:50:31;21.00;99.90
2453;DHT22;1238;47.994;7.854;2022-08-01T05:53:04;20.20;99.90
2453;DHT22;1238;47.994;7.854;2022-08-01T05:55:36;20.30;99.90
2453;DHT22;1238;47.994;7.854;2022-08-01T05:58:09;20.40;99.90
2453;DHT22;1238;47.994;7.854;2022-08-01T06:00:43;23.30;99.90
2453;DHT22;1238;47.994;7.854;2022-08-01T06:03:15;20.70;99.90
2453;DHT22;1238;47.994;7.854;2022-08-01T06:05:48;20.80;99.90
2453;DHT22;1238;47.994;7.854;2022-08-01T06:08:20;21.00;99.90
2453;DHT22;1238;47.994;7.854;2022-08-01T06:10:52;21.00;99.90
2453;DHT22;1238;47.994;7.854;2022-08-01T06:13:25;21.10;99.90
2453;DHT22;1238;47.994;7.854;2022-08-01T06:15:57;21.20;99.90
2453;DHT22;1238;47.994;7.854;2022-08-01T06:18:29;23.30;99.90
2453;DHT22;1238;47.994;7.854;2022-08-01T06:21:02;23.50;99.90
2453;DHT22;1238;47.994;7.854;2022-08-01T06:23:34;21.40;99.90
2453;DHT22;1238;47.994;7.854;2022-08-01T06:26:06;22.60;99.90
2453;DHT22;1238;47.994;7.854;2022-08-01T06:28:39;24.20;99.90
2453;DHT22;1238;47.994;7.854;2022-08-01T06:31:11;21.40;99.90
2453;DHT22;1238;47.994;7.854;2022-08-01T06:33:45;21.50;99.90
2453;DHT22;1238;47.994;7.854;2022-08-01T06:36:18;24.90;99.90
2453;DHT22;1238;47.994;7.854;2022-08-01T06:38:51;21.80;99.90
2453;DHT22;1238;47.994;7.854;2022-08-01T06:41:23;23.70;99.90
2453;DHT22;1238;47.994;7.854;2022-08-01T06:43:55;21.80;99.90
2453;DHT22;1238;47.994;7.854;2022-08-01T06:46:28;23.40;99.90
2453;DHT22;1238;47.994;7.854;2022-08-01T06:49:03;22.00;99.90
2453;DHT22;1238;47.994;7.854;2022-08-01T06:51:38;22.10;99.90
2453;DHT22;1238;47.994;7.854;2022-08-01T06:54:10;23.40;99.90
2453;DHT22;1238;47.994;7.854;2022-08-01T06:56:42;22.60;99.90
2453;DHT22;1238;47.994;7.854;2022-08-01T06:59:14;22.70;99.90
2453;DHT22;1238;47.994;7.854;2022-08-01T07:01:47;25.20;99.90
2453;DHT22;1238;47.994;7.854;2022-08-01T07:04:19;23.90;99.90
2453;DHT22;1238;47.994;7.854;2022-08-01T07:06:52;25.60;97.50
2453;DHT22;1238;47.994;7.854;2022-08-01T07:09:24;27.10;94.50
2453;DHT22;1238;47.994;7.854;2022-08-01T07:11:56;27.10;93.70
2453;DHT22;1238;47.994;7.854;2022-08-01T07:14:29;26.20;94.50
2453;DHT22;1238;47.994;7.854;2022-08-01T07:17:01;25.80;94.70
2453;DHT22;1238;47.994;7.854;2022-08-01T07:19:33;26.90;93.30
2453;DHT22;1238;47.994;7.854;2022-08-01T07:22:09;28.90;91.20
2453;DHT22;1238;47.994;7.854;2022-08-01T07:24:41;28.50;91.70
2453;DHT22;1238;47.994;7.854;2022-08-01T07:27:17;27.80;91.10
2453;DHT22;1238;47.994;7.854;2022-08-01T07:29:56;29.10;90.60
2453;DHT22;1238;47.994;7.854;2022-08-01T07:32:29;29.00;87.50
2453;DHT22;1238;47.994;7.854;2022-08-01T07:35:02;30.20;84.80
2453;DHT22;1238;47.994;7.854;2022-08-01T07:37:35;32.20;79.00
2453;DHT22;1238;47.994;7.854;2022-08-01T07:40:19;32.20;76.30
2453;DHT22;1238;47.994;7.854;2022-08-01T07:42:52;32.40;75.30
2453;DHT22;1238;47.994;7.854;2022-08-01T07:45:24;32.90;73.30
2453;DHT22;1238;47.994;7.854;2022-08-01T07:48:01;32.60;72.20
2453;DHT22;1238;47.994;7.854;2022-08-01T07:50:38;33.00;71.40
2453;DHT22;1238;47.994;7.854;2022-08-01T07:53:11;33.00;71.10
2453;DHT22;1238;47.994;7.854;2022-08-01T07:55:43;32.20;71.20
2453;DHT22;1238;47.994;7.854;2022-08-01T07:58:17;33.90;69.00
2453;DHT22;1238;47.994;7.854;2022-08-01T08:00:49;34.00;68.00
2453;DHT22;1238;47.994;7.854;2022-08-01T08:03:21;34.60;66.90
2453;DHT22;1238;47.994;7.854;2022-08-01T08:05:54;33.20;66.20
2453;DHT22;1238;47.994;7.854;2022-08-01T08:08:30;31.20;67.50
2453;DHT22;1238;47.994;7.854;2022-08-01T08:11:03;35.40;66.40
2453;DHT22;1238;47.994;7.854;2022-08-01T08:13:35;32.90;67.40
2453;DHT22;1238;47.994;7.854;2022-08-01T08:16:08;31.30;69.90
2453;DHT22;1238;47.994;7.854;2022-08-01T08:18:40;31.00;70.60
2453;DHT22;1238;47.994;7.854;2022-08-01T08:21:12;30.50;72.60
2453;DHT22;1238;47.994;7.854;2022-08-01T08:23:44;31.00;71.40
2453;DHT22;1238;47.994;7.854;2022-08-01T08:26:35;29.90;72.60
2453;DHT22;1238;47.994;7.854;2022-08-01T08:29:11;31.50;70.30
2453;DHT22;1238;47.994;7.854;2022-08-01T08:31:43;32.90;68.50
2453;DHT22;1238;47.994;7.854;2022-08-01T08:34:24;32.60;68.70
2453;DHT22;1238;47.994;7.854;2022-08-01T08:36:57;31.20;70.20
2453;DHT22;1238;47.994;7.854;2022-08-01T08:39:30;31.50;70.00
2453;DHT22;1238;47.994;7.854;2022-08-01T08:42:13;34.30;68.40
2453;DHT22;1238;47.994;7.854;2022-08-01T08:44:45;32.90;67.00
2453;DHT22;1238;47.994;7.854;2022-08-01T08:47:19;33.20;67.20
2453;DHT22;1238;47.994;7.854;2022-08-01T08:49:53;31.50;68.00
2453;DHT22;1238;47.994;7.854;2022-08-01T08:52:26;32.10;68.70
2453;DHT22;1238;47.994;7.854;2022-08-01T08:54:58;32.70;69.20
2453;DHT22;1238;47.994;7.854;2022-08-01T08:57:31;35.30;68.40
2453;DHT22;1238;47.994;7.854;2022-08-01T09:00:04;36.00;70.30
2453;DHT22;1238;47.994;7.854;2022-08-01T09:02:42;33.10;67.00
2453;DHT22;1238;47.994;7.854;2022-08-01T09:05:15;35.00;66.80
2453;DHT22;1238;47.994;7.854;2022-08-01T09:07:52;33.10;66.00
2453;DHT22;1238;47.994;7.854;2022-08-01T09:10:25;33.60;67.00
2453;DHT22;1238;47.994;7.854;2022-08-01T09:13:10;34.10;65.40
2453;DHT22;1238;47.994;7.854;2022-08-01T09:15:47;33.80;63.30
2453;DHT22;1238;47.994;7.854;2022-08-01T09:21:19;32.50;66.40
2453;DHT22;1238;47.994;7.854;2022-08-01T09:23:54;33.10;65.40
2453;DHT22;1238;47.994;7.854;2022-08-01T09:26:32;35.30;63.00
2453;DHT22;1238;47.994;7.854;2022-08-01T09:29:06;36.20;64.90
2453;DHT22;1238;47.994;7.854;2022-08-01T09:31:44;33.50;66.00
2453;DHT22;1238;47.994;7.854;2022-08-01T09:34:28;34.70;65.90
2453;DHT22;1238;47.994;7.854;2022-08-01T09:37:02;31.90;65.60
2453;DHT22;1238;47.994;7.854;2022-08-01T09:39:38;32.40;65.70
2453;DHT22;1238;47.994;7.854;2022-08-01T09:42:26;33.10;67.40
2453;DHT22;1238;47.994;7.854;2022-08-01T09:45:00;33.70;66.30
2453;DHT22;1238;47.994;7.854;2022-08-01T09:47:40;32.30;65.00
2453;DHT22;1238;47.994;7.854;2022-08-01T09:50:15;33.10;65.00
2453;DHT22;1238;47.994;7.854;2022-08-01T09:52:53;35.00;65.20
2453;DHT22;1238;47.994;7.854;2022-08-01T09:55:27;35.00;63.00
2453;DHT22;1238;47.994;7.854;2022-08-01T09:58:00;32.80;62.60
2453;DHT22;1238;47.994;7.854;2022-08-01T10:00:34;32.90;64.90
2453;DHT22;1238;47.994;7.854;2022-08-01T10:03:24;33.50;64.50
2453;DHT22;1238;47.994;7.854;2022-08-01T10:05:57;33.60;63.40
2453;DHT22;1238;47.994;7.854;2022-08-01T10:08:46;33.10;63.60
2453;DHT22;1238;47.994;7.854;2022-08-01T10:11:18;35.00;66.00
2453;DHT22;1238;47.994;7.854;2022-08-01T10:14:07;32.20;64.90
2453;DHT22;1238;47.994;7.854;2022-08-01T10:16:40;33.80;64.50
2453;DHT22;1238;47.994;7.854;2022-08-01T10:19:13;33.70;64.90
2453;DHT22;1238;47.994;7.854;2022-08-01T10:21:46;31.60;64.80
2453;DHT22;1238;47.994;7.854;2022-08-01T10:24:30;32.30;66.00
2453;DHT22;1238;47.994;7.854;2022-08-01T10:27:07;33.70;65.80
2453;DHT22;1238;47.994;7.854;2022-08-01T10:29:57;35.40;65.50
2453;DHT22;1238;47.994;7.854;2022-08-01T10:32:51;34.20;63.20
2453;DHT22;1238;47.994;7.854;2022-08-01T10:35:27;33.90;62.60
2453;DHT22;1238;47.994;7.854;2022-08-01T10:38:18;33.50;63.90
2453;DHT22;1238;47.994;7.854;2022-08-01T10:40:54;34.80;64.40
2453;DHT22;1238;47.994;7.854;2022-08-01T10:43:28;33.50;63.30
2453;DHT22;1238;47.994;7.854;2022-08-01T10:46:04;34.50;63.40
2453;DHT22;1238;47.994;7.854;2022-08-01T10:51:25;33.50;61.60
2453;DHT22;1238;47.994;7.854;2022-08-01T10:54:18;35.40;63.50
2453;DHT22;1238;47.994;7.854;2022-08-01T10:56:51;34.10;63.10
2453;DHT22;1238;47.994;7.854;2022-08-01T10:59:27;32.30;62.20
2453;DHT22;1238;47.994;7.854;2022-08-01T11:02:32;36.50;64.40
2453;DHT22;1238;47.994;7.854;2022-08-01T11:05:20;33.00;62.10
2453;DHT22;1238;47.994;7.854;2022-08-01T11:07:55;34.40;63.80
2453;DHT22;1238;47.994;7.854;2022-08-01T11:10:42;32.50;63.40
2453;DHT22;1238;47.994;7.854;2022-08-01T11:16:28;32.90;63.00
2453;DHT22;1238;47.994;7.854;2022-08-01T11:19:00;33.10;62.60
2453;DHT22;1238;47.994;7.854;2022-08-01T11:32:47;33.20;61.50
2453;DHT22;1238;47.994;7.854;2022-08-01T11:38:48;33.30;59.90
2453;DHT22;1238;47.994;7.854;2022-08-01T11:41:24;32.70;60.20
2453;DHT22;1238;47.994;7.854;2022-08-01T11:44:18;32.70;60.40
2453;DHT22;1238;47.994;7.854;2022-08-01T11:47:05;33.10;59.80
2453;DHT22;1238;47.994;7.854;2022-08-01T11:49:46;33.10;60.50
2453;DHT22;1238;47.994;7.854;2022-08-01T11:52:31;33.50;60.60
2453;DHT22;1238;47.994;7.854;2022-08-01T11:55:09;33.60;61.70
2453;DHT22;1238;47.994;7.854;2022-08-01T11:57:42;32.60;61.80
2453;DHT22;1238;47.994;7.854;2022-08-01T12:00:17;32.60;61.50
2453;DHT22;1238;47.994;7.854;2022-08-01T12:03:04;33.60;63.30
2453;DHT22;1238;47.994;7.854;2022-08-01T12:05:38;31.60;63.00
2453;DHT22;1238;47.994;7.854;2022-08-01T12:08:27;31.50;62.80
2453;DHT22;1238;47.994;7.854;2022-08-01T12:11:01;31.70;63.70
2453;DHT22;1238;47.994;7.854;2022-08-01T12:13:42;35.30;64.40
2453;DHT22;1238;47.994;7.854;2022-08-01T12:16:15;32.30;62.30
2453;DHT22;1238;47.994;7.854;2022-08-01T12:21:20;31.40;63.10
2453;DHT22;1238;47.994;7.854;2022-08-01T12:24:02;32.00;62.80
2453;DHT22;1238;47.994;7.854;2022-08-01T12:26:41;34.70;63.70
2453;DHT22;1238;47.994;7.854;2022-08-01T12:29:48;34.50;63.40
2453;DHT22;1238;47.994;7.854;2022-08-01T12:35:16;33.80;61.10
2453;DHT22;1238;47.994;7.854;2022-08-01T12:37:55;33.50;60.00
2453;DHT22;1238;47.994;7.854;2022-08-01T12:40:36;32.70;60.70
2453;DHT22;1238;47.994;7.854;2022-08-01T12:43:17;32.80;62.20
2453;DHT22;1238;47.994;7.854;2022-08-01T12:46:00;31.60;62.90
2453;DHT22;1238;47.994;7.854;2022-08-01T12:48:33;32.80;61.80
2453;DHT22;1238;47.994;7.854;2022-08-01T12:51:06;33.10;60.90
2453;DHT22;1238;47.994;7.854;2022-08-01T12:53:41;32.50;60.80
2453;DHT22;1238;47.994;7.854;2022-08-01T12:56:13;34.90;63.00
2453;DHT22;1238;47.994;7.854;2022-08-01T12:58:47;32.10;61.20
2453;DHT22;1238;47.994;7.854;2022-08-01T13:01:25;32.70;61.50
2453;DHT22;1238;47.994;7.854;2022-08-01T13:04:02;32.50;61.50
2453;DHT22;1238;47.994;7.854;2022-08-01T13:06:36;32.50;62.00
2453;DHT22;1238;47.994;7.854;2022-08-01T13:09:09;32.90;62.30
2453;DHT22;1238;47.994;7.854;2022-08-01T13:11:43;35.80;62.70
2453;DHT22;1238;47.994;7.854;2022-08-01T13:14:35;32.60;60.30
2453;DHT22;1238;47.994;7.854;2022-08-01T13:17:32;33.40;61.00
2453;DHT22;1238;47.994;7.854;2022-08-01T13:20:04;33.00;60.90
2453;DHT22;1238;47.994;7.854;2022-08-01T13:22:37;32.50;63.10
2453;DHT22;1238;47.994;7.854;2022-08-01T13:25:14;32.50;63.40
2453;DHT22;1238;47.994;7.854;2022-08-01T13:28:16;32.30;64.20
2453;DHT22;1238;47.994;7.854;2022-08-01T13:31:07;32.00;64.70
2453;DHT22;1238;47.994;7.854;2022-08-01T13:33:44;32.20;64.60
2453;DHT22;1238;47.994;7.854;2022-08-01T13:36:25;32.20;64.40
2453;DHT22;1238;47.994;7.854;2022-08-01T13:39:01;32.50;64.40
2453;DHT22;1238;47.994;7.854;2022-08-01T13:41:52;32.80;64.20
2453;DHT22;1238;47.994;7.854;2022-08-01T13:44:25;32.70;64.50
2453;DHT22;1238;47.994;7.854;2022-08-01T13:46:57;32.60;65.10
2453;DHT22;1238;47.994;7.854;2022-08-01T13:49:29;32.90;64.30
2453;DHT22;1238;47.994;7.854;2022-08-01T13:52:08;32.70;65.00
2453;DHT22;1238;47.994;7.854;2022-08-01T13:54:41;32.30;65.40
2453;DHT22;1238;47.994;7.854;2022-08-01T13:57:13;32.20;65.70
2453;DHT22;1238;47.994;7.854;2022-08-01T13:59:46;31.80;65.70
2453;DHT22;1238;47.994;7.854;2022-08-01T14:02:18;31.80;65.90
2453;DHT22;1238;47.994;7.854;2022-08-01T14:04:50;31.70;66.60
2453;DHT22;1238;47.994;7.854;2022-08-01T14:07:22;31.60;66.40
2453;DHT22;1238;47.994;7.854;2022-08-01T14:09:59;32.50;67.00
2453;DHT22;1238;47.994;7.854;2022-08-01T14:12:50;32.00;66.10
2453;DHT22;1238;47.994;7.854;2022-08-01T14:15:22;32.30;65.30
2453;DHT22;1238;47.994;7.854;2022-08-01T14:18:10;33.10;65.90
2453;DHT22;1238;47.994;7.854;2022-08-01T14:20:43;32.00;65.70
2453;DHT22;1238;47.994;7.854;2022-08-01T14:23:15;31.90;65.60
2453;DHT22;1238;47.994;7.854;2022-08-01T14:25:47;31.80;66.10
2453;DHT22;1238;47.994;7.854;2022-08-01T14:28:37;32.70;67.40
2453;DHT22;1238;47.994;7.854;2022-08-01T14:31:10;32.80;67.50
2453;DHT22;1238;47.994;7.854;2022-08-01T14:33:42;31.60;66.90
2453;DHT22;1238;47.994;7.854;2022-08-01T14:36:14;31.50;66.40
2453;DHT22;1238;47.994;7.854;2022-08-01T14:39:02;31.40;66.60
2453;DHT22;1238;47.994;7.854;2022-08-01T14:41:35;31.20;67.10
2453;DHT22;1238;47.994;7.854;2022-08-01T14:44:07;33.60;69.10
2453;DHT22;1238;47.994;7.854;2022-08-01T14:46:40;30.90;67.00
2453;DHT22;1238;47.994;7.854;2022-08-01T14:49:29;30.80;67.30
2453;DHT22;1238;47.994;7.854;2022-08-01T14:52:02;30.70;67.00
2453;DHT22;1238;47.994;7.854;2022-08-01T14:54:35;31.80;68.20
2453;DHT22;1238;47.994;7.854;2022-08-01T14:57:07;30.70;67.50
2453;DHT22;1238;47.994;7.854;2022-08-01T14:59:39;30.70;68.10
2453;DHT22;1238;47.994;7.854;2022-08-01T15:02:11;30.70;67.70
2453;DHT22;1238;47.994;7.854;2022-08-01T15:04:49;30.60;67.50
2453;DHT22;1238;47.994;7.854;2022-08-01T15:07:21;30.70;67.30
2453;DHT22;1238;47.994;7.854;2022-08-01T15:09:53;32.70;67.80
2453;DHT22;1238;47.994;7.854;2022-08-01T15:12:26;31.50;66.50
2453;DHT22;1238;47.994;7.854;2022-08-01T15:15:18;33.00;67.90
2453;DHT22;1238;47.994;7.854;2022-08-01T15:17:51;31.20;67.10
2453;DHT22;1238;47.994;7.854;2022-08-01T15:20:25;33.50;69.00
2453;DHT22;1238;47.994;7.854;2022-08-01T15:22:58;31.00;67.30
2453;DHT22;1238;47.994;7.854;2022-08-01T15:25:30;31.00;67.60
2453;DHT22;1238;47.994;7.854;2022-08-01T15:28:12;31.00;68.10
2453;DHT22;1238;47.994;7.854;2022-08-01T15:30:46;31.00;68.20
2453;DHT22;1238;47.994;7.854;2022-08-01T15:33:18;30.90;68.30
2453;DHT22;1238;47.994;7.854;2022-08-01T15:35:53;30.80;68.70
2453;DHT22;1238;47.994;7.854;2022-08-01T15:38:25;30.80;68.80
2453;DHT22;1238;47.994;7.854;2022-08-01T15:40:57;30.90;68.60
2453;DHT22;1238;47.994;7.854;2022-08-01T15:43:30;31.20;68.50
2453;DHT22;1238;47.994;7.854;2022-08-01T15:46:03;32.00;69.40
2453;DHT22;1238;47.994;7.854;2022-08-01T15:48:36;31.40;69.30
2453;DHT22;1238;47.994;7.854;2022-08-01T15:51:11;31.10;69.00
2453;DHT22;1238;47.994;7.854;2022-08-01T15:53:43;31.10;68.70
2453;DHT22;1238;47.994;7.854;2022-08-01T15:56:17;32.10;69.50
2453;DHT22;1238;47.994;7.854;2022-08-01T15:58:50;31.10;68.90
2453;DHT22;1238;47.994;7.854;2022-08-01T16:01:22;32.00;69.50
2453;DHT22;1238;47.994;7.854;2022-08-01T16:03:56;33.10;70.60
2453;DHT22;1238;47.994;7.854;2022-08-01T16:06:31;31.00;69.30
2453;DHT22;1238;47.994;7.854;2022-08-01T16:09:03;31.80;69.80
2453;DHT22;1238;47.994;7.854;2022-08-01T16:11:36;30.80;68.90
2453;DHT22;1238;47.994;7.854;2022-08-01T16:14:22;30.70;69.90
2453;DHT22;1238;47.994;7.854;2022-08-01T16:16:54;30.40;70.30
2453;DHT22;1238;47.994;7.854;2022-08-01T16:19:28;32.40;72.20
2453;DHT22;1238;47.994;7.854;2022-08-01T16:22:00;30.10;71.30
2453;DHT22;1238;47.994;7.854;2022-08-01T16:24:32;31.30;72.60
2453;DHT22;1238;47.994;7.854;2022-08-01T16:27:07;29.90;71.70
2453;DHT22;1238;47.994;7.854;2022-08-01T16:29:39;29.90;71.70
2453;DHT22;1238;47.994;7.854;2022-08-01T16:32:12;29.90;71.80
2453;DHT22;1238;47.994;7.854;2022-08-01T16:35:05;29.80;72.10
2453;DHT22;1238;47.994;7.854;2022-08-01T16:37:37;29.70;72.30
2453;DHT22;1238;47.994;7.854;2022-08-01T16:40:10;29.70;72.50
2453;DHT22;1238;47.994;7.854;2022-08-01T16:42:44;29.60;72.60
2453;DHT22;1238;47.994;7.854;2022-08-01T16:45:17;29.50;72.80
2453;DHT22;1238;47.994;7.854;2022-08-01T16:47:52;29.60;73.00
2453;DHT22;1238;47.994;7.854;2022-08-01T16:50:26;29.40;73.50
2453;DHT22;1238;47.994;7.854;2022-08-01T16:52:59;29.20;73.90
2453;DHT22;1238;47.994;7.854;2022-08-01T16:55:32;29.30;74.10
2453;DHT22;1238;47.994;7.854;2022-08-01T16:58:21;29.10;74.50
2453;DHT22;1238;47.994;7.854;2022-08-01T17:00:59;29.00;76.80
2453;DHT22;1238;47.994;7.854;2022-08-01T17:03:51;28.80;77.30
2453;DHT22;1238;47.994;7.854;2022-08-01T17:06:30;28.40;78.20
2453;DHT22;1238;47.994;7.854;2022-08-01T17:09:04;28.40;78.00
2453;DHT22;1238;47.994;7.854;2022-08-01T17:11:36;28.30;77.80
2453;DHT22;1238;47.994;7.854;2022-08-01T17:14:08;28.30;77.80
2453;DHT22;1238;47.994;7.854;2022-08-01T17:16:41;28.40;77.90
2453;DHT22;1238;47.994;7.854;2022-08-01T17:19:13;28.40;77.90
2453;DHT22;1238;47.994;7.854;2022-08-01T17:21:46;28.20;77.70
2453;DHT22;1238;47.994;7.854;2022-08-01T17:24:18;28.10;78.30
2453;DHT22;1238;47.994;7.854;2022-08-01T17:26:50;27.80;79.20
2453;DHT22;1238;47.994;7.854;2022-08-01T17:29:22;27.50;80.40
2453;DHT22;1238;47.994;7.854;2022-08-01T17:31:54;27.10;84.70
2453;DHT22;1238;47.994;7.854;2022-08-01T17:34:27;27.20;88.00
2453;DHT22;1238;47.994;7.854;2022-08-01T17:37:02;26.20;91.60
2453;DHT22;1238;47.994;7.854;2022-08-01T17:39:35;25.50;94.60